| time (UTC) | temp F | wind direction | speed MPH | gust MPH | rain 1hr in | rain 24hr in | rain mn in | humidity % | barometer mb |
| 20260507153056 | 78 | 31 | 6.0 | 15.0 | 0.00 | 0.00 | 0.00 | 11 | 886.1 |
| 20260507151553 | 76 | 30 | 10.0 | 15.0 | 0.00 | 0.00 | 0.00 | 11 | 886.1 |
| 20260507150051 | 76 | 34 | 8.0 | 15.0 | 0.00 | 0.00 | 0.00 | 12 | 886.1 |
| 20260507144547 | 74 | 21 | 9.0 | 16.0 | 0.00 | 0.00 | 0.00 | 13 | 886.1 |
| 20260507143048 | 74 | 5 | 6.0 | 14.0 | 0.00 | 0.00 | 0.00 | 14 | 886.1 |
| 20260507141548 | 73 | 360 | 6.0 | 13.0 | 0.00 | 0.00 | 0.00 | 15 | 886.1 |
| 20260507140043 | 73 | 41 | 5.0 | 12.0 | 0.00 | 0.00 | 0.00 | 16 | 886.1 |
| 20260507134540 | 72 | 325 | 6.0 | 12.0 | 0.00 | 0.00 | 0.00 | 18 | 886.1 |
| 20260507133052 | 70 | 338 | 5.0 | 10.0 | 0.00 | 0.00 | 0.00 | 22 | 886.1 |
| 20260507131545 | 69 | 337 | 5.0 | 10.0 | 0.00 | 0.00 | 0.00 | 25 | 886.1 |
| 20260507130042 | 69 | 323 | 4.0 | 11.0 | 0.00 | 0.00 | 0.00 | 26 | 886.1 |
| 20260507124533 | 69 | 326 | 9.0 | 14.0 | 0.00 | 0.00 | 0.00 | 26 | 886.1 |
| 20260507123033 | 69 | 329 | 7.0 | 14.0 | 0.00 | 0.00 | 0.00 | 26 | 886.1 |
| 20260507121532 | 69 | 336 | 9.0 | 14.0 | 0.00 | 0.00 | 0.00 | 26 | 886.1 |
| 20260507120033 | 69 | 324 | 6.0 | 13.0 | 0.00 | 0.00 | 0.00 | 26 | 886.1 |
| 20260507114537 | 68 | 319 | 7.0 | 12.0 | 0.00 | 0.00 | 0.00 | 27 | 886.1 |
| 20260507113029 | 66 | 285 | 3.0 | 8.0 | 0.00 | 0.00 | 0.00 | 29 | 886.1 |
| 20260507111534 | 66 | 292 | 3.0 | 9.0 | 0.00 | 0.00 | 0.00 | 29 | 886.1 |
| 20260507110029 | 66 | 293 | 4.0 | 9.0 | 0.00 | 0.00 | 0.00 | 29 | 886.1 |
| 20260507104529 | 66 | 280 | 2.0 | 7.0 | 0.00 | 0.00 | 0.00 | 29 | 886.1 |
| 20260507103027 | 66 | 284 | 3.0 | 8.0 | 0.00 | 0.00 | 0.00 | 29 | 886.1 |
| 20260507101528 | 66 | 275 | 3.0 | 6.0 | 0.00 | 0.00 | 0.00 | 28 | 886.1 |
| 20260507100027 | 66 | 280 | 3.0 | 5.0 | 0.00 | 0.00 | 0.00 | 27 | 886.1 |
| 20260507094525 | 67 | 321 | 2.0 | 8.0 | 0.00 | 0.00 | 0.00 | 27 | 886.1 |
| 20260507093026 | 65 | 265 | 4.0 | 7.0 | 0.00 | 0.00 | 0.00 | 27 | 886.1 |
| 20260507091530 | 65 | 238 | 3.0 | 7.0 | 0.00 | 0.00 | 0.00 | 27 | 886.1 |
| 20260507090024 | 66 | 232 | 3.0 | 4.0 | 0.00 | 0.00 | 0.00 | 26 | 886.1 |
| 20260507084519 | 67 | 230 | 2.0 | 3.0 | 0.00 | 0.00 | 0.00 | 26 | 886.1 |
| 20260507083019 | 67 | 240 | 3.0 | 5.0 | 0.00 | 0.00 | 0.00 | 26 | 886.1 |
| 20260507081517 | 68 | 241 | 2.0 | 5.0 | 0.00 | 0.00 | 0.00 | 25 | 886.1 |
| 20260507080022 | 68 | 202 | 3.0 | 5.0 | 0.00 | 0.00 | 0.00 | 25 | 886.1 |
| 20260507074516 | 68 | 223 | 2.0 | 5.0 | 0.00 | 0.00 | 0.00 | 25 | 886.1 |
| 20260507073014 | 68 | 232 | 4.0 | 6.0 | 0.00 | 0.00 | 0.00 | 26 | 886.1 |
| 20260507071511 | 70 | 232 | 1.0 | 3.0 | 0.00 | 0.00 | 0.00 | 25 | 886.1 |
| 20260507070012 | 69 | 254 | 1.0 | 3.0 | 0.00 | 0.00 | 0.00 | 25 | 886.1 |
| 20260507064508 | 69 | 244 | 1.0 | 4.0 | 0.00 | 0.00 | 0.00 | 25 | 886.1 |
| 20260507063008 | 69 | 275 | 2.0 | 6.0 | 0.00 | 0.00 | 0.00 | 25 | 886.1 |
| 20260507061507 | 69 | 262 | 2.0 | 5.0 | 0.00 | 0.00 | 0.00 | 24 | 886.1 |
| 20260507060006 | 71 | 360 | 1.0 | 3.0 | 0.00 | 0.00 | 0.00 | 24 | 886.1 |
| 20260507054515 | 72 | 269 | 1.0 | 7.0 | 0.00 | 0.00 | 0.00 | 23 | 886.1 |
| 20260507053006 | 71 | 281 | 3.0 | 8.0 | 0.00 | 0.00 | 0.00 | 24 | 886.1 |
| 20260507051505 | 72 | 220 | 3.0 | 8.0 | 0.00 | 0.00 | 0.00 | 24 | 886.1 |
| 20260507050005 | 72 | 284 | 3.0 | 9.0 | 0.00 | 0.00 | 0.00 | 24 | 886.1 |
| 20260507044503 | 72 | 267 | 5.0 | 11.0 | 0.00 | 0.00 | 0.00 | 24 | 886.1 |
| 20260507043009 | 72 | 272 | 8.0 | 12.0 | 0.00 | 0.00 | 0.00 | 25 | 886.1 |
| 20260507041503 | 72 | 279 | 7.0 | 11.0 | 0.00 | 0.00 | 0.00 | 25 | 886.1 |
| 20260507040002 | 72 | 311 | 5.0 | 9.0 | 0.00 | 0.00 | 0.00 | 25 | 886.1 |
| 20260507034502 | 73 | 281 | 7.0 | 12.0 | 0.00 | 0.00 | 0.00 | 24 | 886.1 |
| 20260507033001 | 73 | 269 | 4.0 | 12.0 | 0.00 | 0.00 | 0.00 | 24 | 886.1 |
| 20260507031600 | 73 | 247 | 6.0 | 10.0 | 0.00 | 0.00 | 0.00 | 24 | 886.1 |
| 20260507030100 | 73 | 267 | 5.0 | 9.0 | 0.00 | 0.00 | 0.00 | 24 | 886.1 |
| 20260507024608 | 73 | 271 | 4.0 | 9.0 | 0.00 | 0.00 | 0.00 | 23 | 886.1 |
| 20260507023059 | 74 | 232 | 2.0 | 10.0 | 0.00 | 0.00 | 0.00 | 23 | 886.1 |
| 20260507021606 | 74 | 272 | 5.0 | 9.0 | 0.00 | 0.00 | 0.00 | 23 | 886.1 |
| 20260507020113 | 75 | 227 | 4.0 | 11.0 | 0.00 | 0.00 | 0.00 | 23 | 886.1 |
| 20260507014605 | 75 | 360 | 2.0 | 10.0 | 0.00 | 0.00 | 0.00 | 22 | 886.1 |
| 20260507013059 | 76 | 271 | 2.0 | 8.0 | 0.00 | 0.00 | 0.00 | 21 | 886.1 |
| 20260507011556 | 77 | 192 | 3.0 | 9.0 | 0.00 | 0.00 | 0.00 | 20 | 886.1 |
| 20260507004604 | 79 | 250 | 5.0 | 11.0 | 0.00 | 0.00 | 0.00 | 19 | 886.1 |
| 20260507003055 | 80 | 277 | 4.0 | 8.0 | 0.00 | 0.00 | 0.00 | 19 | 886.1 |
| 20260507001555 | 80 | 309 | 2.0 | 12.0 | 0.00 | 0.00 | 0.00 | 19 | 886.1 |
| 20260507000053 | 81 | 272 | 5.0 | 11.0 | 0.00 | 0.00 | 0.00 | 19 | 886.1 |
| 20260506234554 | 80 | 200 | 4.0 | 12.0 | 0.00 | 0.00 | 0.00 | 19 | 886.1 |
| 20260506233108 | 81 | 266 | 5.0 | 13.0 | 0.00 | 0.00 | 0.00 | 19 | 886.1 |
| 20260506231556 | 80 | 281 | 6.0 | 13.0 | 0.00 | 0.00 | 0.00 | 20 | 886.1 |
| 20260506230053 | 82 | 238 | 6.0 | 12.0 | 0.00 | 0.00 | 0.00 | 18 | 886.1 |
| 20260506224554 | 81 | 215 | 5.0 | 11.0 | 0.00 | 0.00 | 0.00 | 19 | 886.1 |
| 20260506223053 | 81 | 321 | 2.0 | 11.0 | 0.00 | 0.00 | 0.00 | 19 | 886.1 |
| 20260506221549 | 81 | 284 | 3.0 | 14.0 | 0.00 | 0.00 | 0.00 | 19 | 886.1 |
| 20260506220048 | 79 | 284 | 1.0 | 10.0 | 0.00 | 0.00 | 0.00 | 20 | 886.1 |
| 20260506214550 | 82 | 312 | 6.0 | 12.0 | 0.00 | 0.00 | 0.00 | 19 | 886.1 |
| 20260506213103 | 82 | 303 | 5.0 | 13.0 | 0.00 | 0.00 | 0.00 | 19 | 886.1 |
| 20260506211547 | 79 | 311 | 3.0 | 9.0 | 0.00 | 0.00 | 0.00 | 21 | 886.1 |
| 20260506210045 | 79 | 317 | 4.0 | 10.0 | 0.00 | 0.00 | 0.00 | 21 | 886.1 |
| 20260506204543 | 80 | 29 | 4.0 | 12.0 | 0.00 | 0.00 | 0.00 | 20 | 886.1 |
| 20260506203043 | 78 | 215 | 7.0 | 12.0 | 0.00 | 0.00 | 0.00 | 22 | 886.1 |
| 20260506201543 | 77 | 192 | 4.0 | 11.0 | 0.00 | 0.00 | 0.00 | 21 | 886.1 |
| 20260506200043 | 81 | 258 | 7.0 | 12.0 | 0.00 | 0.00 | 0.00 | 20 | 886.1 |
| 20260506194540 | 78 | 294 | 4.0 | 14.0 | 0.00 | 0.00 | 0.00 | 22 | 886.1 |
| 20260506193039 | 78 | 294 | 8.0 | 14.0 | 0.00 | 0.00 | 0.00 | 22 | 886.1 |
| 20260506191540 | 75 | 95 | 3.0 | 12.0 | 0.00 | 0.00 | 0.00 | 24 | 886.1 |
| 20260506190035 | 77 | 271 | 9.0 | 13.0 | 0.00 | 0.00 | 0.00 | 23 | 886.1 |
| 20260506184546 | 76 | 348 | 3.0 | 10.0 | 0.00 | 0.00 | 0.00 | 23 | 886.1 |
| 20260506183050 | 78 | 269 | 7.0 | 12.0 | 0.00 | 0.00 | 0.00 | 22 | 886.1 |
| 20260506181551 | 73 | 319 | 2.0 | 13.0 | 0.00 | 0.00 | 0.00 | 27 | 886.1 |
| 20260506180035 | 76 | 279 | 8.0 | 15.0 | 0.00 | 0.00 | 0.00 | 25 | 886.1 |
| 20260506174530 | 76 | 304 | 5.0 | 12.0 | 0.00 | 0.00 | 0.00 | 24 | 886.1 |
| 20260506173026 | 72 | 168 | 3.0 | 11.0 | 0.00 | 0.00 | 0.00 | 28 | 886.1 |
| 20260506171525 | 72 | 154 | 4.0 | 10.0 | 0.00 | 0.00 | 0.00 | 28 | 886.1 |
| 20260506170023 | 72 | 149 | 4.0 | 9.0 | 0.00 | 0.00 | 0.00 | 29 | 886.1 |
| 20260506164531 | 71 | 226 | 2.0 | 12.0 | 0.00 | 0.00 | 0.00 | 29 | 886.1 |
| 20260506163024 | 69 | 188 | 3.0 | 11.0 | 0.00 | 0.00 | 0.00 | 32 | 886.1 |
| 20260506161519 | 68 | 87 | 6.0 | 10.0 | 0.00 | 0.00 | 0.00 | 32 | 886.1 |
| 20260506160018 | 68 | 73 | 4.0 | 11.0 | 0.00 | 0.00 | 0.00 | 34 | 886.1 |
| 20260506154517 | 67 | 103 | 4.0 | 8.0 | 0.00 | 0.00 | 0.00 | 34 | 886.1 |